Otsego, Michigan
Current Conditions -  °F | °C
As of 6:43 AM on Friday 31 Oct 2014 (Local Time) from KAZO Reporting Station
Light Rain Light Rain  
Wind Chill: 36°   Ceiling: 1000
Heat Index: 42°   Visibility: 4mi
Dew Point: 39°   Wind: 12mph
Humidity: 89%   Direction: 320°NW
Pressure: 29.94"   Gusts: NA
Location:  42.46°N, 85.7°W
Report Text: KAZO 311043Z 32010KT 4SM -RA BR OVC010 06/04 A2994 RMK AO2 CIG 006V012 P0001 T00560039
Loading
Personal Weather Stations






























Interactive Weather Map
Tropical Storm Tracking
New forecast layout! Learn more

10-Day Weather Forecast

Advertisements
Track Severe Weather on mobile